Sog Xian, China
Current Conditions -  °F | °C
As of 9:50 PM on Tuesday 21 Oct 2014 (Local Time) from VGHS Reporting Station
Haze Haze  
Wind Chill: 81°   Ceiling: Unl
Heat Index: 83°   Visibility: 3mi
Dew Point: 66°   Wind: 0mph
Humidity: 61%   Direction: NA
Pressure: 29.85"   Gusts: NA
Location:  31.88°N, 93.78°E
Report Text: VGHS 211350Z 00000KT 5000 HZ NSC 27/19 Q1011 NOSIG
Loading
Personal Weather Stations






























Interactive Weather Map
Tropical Storm Tracking
New forecast layout! Learn more

10-Day Weather Forecast

Advertisements
Track Severe Weather on mobile